sensor_id;sensor_type;location;lat;lon;timestamp;P1;durP1;ratioP1;P2;durP2;ratioP2
19554;SDS011;9924;50.828;6.440;2023-05-07T00:01:19;7.97;;;4.78;;
19554;SDS011;9924;50.828;6.440;2023-05-07T00:04:04;5.53;;;4.68;;
19554;SDS011;9924;50.828;6.440;2023-05-07T00:06:49;5.00;;;4.07;;
19554;SDS011;9924;50.828;6.440;2023-05-07T00:09:37;7.38;;;4.22;;
19554;SDS011;9924;50.828;6.440;2023-05-07T00:12:23;6.15;;;3.67;;
19554;SDS011;9924;50.828;6.440;2023-05-07T00:15:09;5.32;;;3.63;;
19554;SDS011;9924;50.828;6.440;2023-05-07T00:17:55;5.97;;;3.80;;
19554;SDS011;9924;50.828;6.440;2023-05-07T00:20:43;4.07;;;3.25;;
19554;SDS011;9924;50.828;6.440;2023-05-07T00:23:28;6.13;;;3.60;;
19554;SDS011;9924;50.828;6.440;2023-05-07T00:26:16;5.43;;;3.67;;
19554;SDS011;9924;50.828;6.440;2023-05-07T00:29:04;4.75;;;3.50;;
19554;SDS011;9924;50.828;6.440;2023-05-07T00:31:49;3.40;;;3.10;;
19554;SDS011;9924;50.828;6.440;2023-05-07T00:34:35;5.78;;;3.78;;
19554;SDS011;9924;50.828;6.440;2023-05-07T00:37:20;3.85;;;2.70;;
19554;SDS011;9924;50.828;6.440;2023-05-07T00:40:05;3.92;;;3.17;;
19554;SDS011;9924;50.828;6.440;2023-05-07T00:42:51;4.32;;;3.03;;
19554;SDS011;9924;50.828;6.440;2023-05-07T00:45:40;5.13;;;2.92;;
19554;SDS011;9924;50.828;6.440;2023-05-07T00:48:31;4.97;;;3.00;;
19554;SDS011;9924;50.828;6.440;2023-05-07T00:51:20;5.97;;;3.13;;
19554;SDS011;9924;50.828;6.440;2023-05-07T00:54:08;3.03;;;2.60;;
19554;SDS011;9924;50.828;6.440;2023-05-07T00:56:59;4.28;;;3.47;;
19554;SDS011;9924;50.828;6.440;2023-05-07T00:59:44;4.82;;;3.80;;
19554;SDS011;9924;50.828;6.440;2023-05-07T01:02:32;5.55;;;3.78;;
19554;SDS011;9924;50.828;6.440;2023-05-07T01:05:21;3.40;;;3.00;;
19554;SDS011;9924;50.828;6.440;2023-05-07T01:08:12;5.93;;;3.30;;
19554;SDS011;9924;50.828;6.440;2023-05-07T01:10:57;10.45;;;3.15;;
19554;SDS011;9924;50.828;6.440;2023-05-07T01:13:43;4.25;;;3.28;;
19554;SDS011;9924;50.828;6.440;2023-05-07T01:16:32;4.47;;;3.50;;
19554;SDS011;9924;50.828;6.440;2023-05-07T01:19:26;4.18;;;2.88;;
19554;SDS011;9924;50.828;6.440;2023-05-07T01:22:13;3.95;;;3.00;;
19554;SDS011;9924;50.828;6.440;2023-05-07T01:25:07;4.93;;;3.10;;
19554;SDS011;9924;50.828;6.440;2023-05-07T01:27:55;4.13;;;2.65;;
19554;SDS011;9924;50.828;6.440;2023-05-07T01:30:40;3.78;;;3.38;;
19554;SDS011;9924;50.828;6.440;2023-05-07T01:33:41;5.63;;;2.67;;
19554;SDS011;9924;50.828;6.440;2023-05-07T01:36:28;4.60;;;2.70;;
19554;SDS011;9924;50.828;6.440;2023-05-07T01:39:15;5.20;;;2.67;;
19554;SDS011;9924;50.828;6.440;2023-05-07T01:42:01;3.80;;;2.97;;
19554;SDS011;9924;50.828;6.440;2023-05-07T01:44:49;4.65;;;2.83;;
19554;SDS011;9924;50.828;6.440;2023-05-07T01:47:40;6.18;;;3.30;;
19554;SDS011;9924;50.828;6.440;2023-05-07T01:50:30;4.35;;;2.80;;
19554;SDS011;9924;50.828;6.440;2023-05-07T01:53:23;5.78;;;3.00;;
19554;SDS011;9924;50.828;6.440;2023-05-07T01:56:10;8.02;;;3.95;;
19554;SDS011;9924;50.828;6.440;2023-05-07T01:58:55;5.05;;;3.00;;
19554;SDS011;9924;50.828;6.440;2023-05-07T02:01:40;5.00;;;3.00;;
19554;SDS011;9924;50.828;6.440;2023-05-07T02:04:28;5.93;;;3.72;;
19554;SDS011;9924;50.828;6.440;2023-05-07T02:07:12;6.40;;;3.42;;
19554;SDS011;9924;50.828;6.440;2023-05-07T02:09:57;6.03;;;3.83;;
19554;SDS011;9924;50.828;6.440;2023-05-07T02:12:43;7.20;;;3.38;;
19554;SDS011;9924;50.828;6.440;2023-05-07T02:15:28;6.40;;;3.45;;
19554;SDS011;9924;50.828;6.440;2023-05-07T02:18:13;6.82;;;3.10;;
19554;SDS011;9924;50.828;6.440;2023-05-07T02:21:00;5.55;;;3.20;;
19554;SDS011;9924;50.828;6.440;2023-05-07T02:23:45;2.85;;;2.42;;
19554;SDS011;9924;50.828;6.440;2023-05-07T02:26:29;7.20;;;2.75;;
19554;SDS011;9924;50.828;6.440;2023-05-07T02:29:18;3.35;;;2.63;;
19554;SDS011;9924;50.828;6.440;2023-05-07T02:32:03;3.80;;;2.60;;
19554;SDS011;9924;50.828;6.440;2023-05-07T02:34:51;3.25;;;2.63;;
19554;SDS011;9924;50.828;6.440;2023-05-07T02:37:39;3.83;;;2.70;;
19554;SDS011;9924;50.828;6.440;2023-05-07T02:40:36;2.90;;;2.60;;
19554;SDS011;9924;50.828;6.440;2023-05-07T02:43:24;5.25;;;2.67;;
19554;SDS011;9924;50.828;6.440;2023-05-07T02:46:11;4.22;;;2.45;;
19554;SDS011;9924;50.828;6.440;2023-05-07T02:48:56;4.70;;;2.42;;
19554;SDS011;9924;50.828;6.440;2023-05-07T02:51:41;4.22;;;2.60;;
19554;SDS011;9924;50.828;6.440;2023-05-07T02:54:26;6.45;;;2.30;;
19554;SDS011;9924;50.828;6.440;2023-05-07T02:57:12;4.45;;;2.45;;
19554;SDS011;9924;50.828;6.440;2023-05-07T02:59:59;5.45;;;2.60;;
19554;SDS011;9924;50.828;6.440;2023-05-07T03:02:47;4.22;;;2.17;;
19554;SDS011;9924;50.828;6.440;2023-05-07T03:05:34;2.67;;;2.38;;
19554;SDS011;9924;50.828;6.440;2023-05-07T03:08:19;3.72;;;2.58;;
19554;SDS011;9924;50.828;6.440;2023-05-07T03:11:05;3.90;;;2.50;;
19554;SDS011;9924;50.828;6.440;2023-05-07T03:13:52;3.50;;;2.28;;
19554;SDS011;9924;50.828;6.440;2023-05-07T03:16:37;4.40;;;2.10;;
19554;SDS011;9924;50.828;6.440;2023-05-07T03:19:23;2.75;;;2.20;;
19554;SDS011;9924;50.828;6.440;2023-05-07T03:22:09;4.32;;;2.60;;
19554;SDS011;9924;50.828;6.440;2023-05-07T03:24:53;2.95;;;2.35;;
19554;SDS011;9924;50.828;6.440;2023-05-07T03:27:38;4.30;;;2.65;;
19554;SDS011;9924;50.828;6.440;2023-05-07T03:30:23;3.25;;;2.42;;
19554;SDS011;9924;50.828;6.440;2023-05-07T03:33:09;2.40;;;2.20;;
19554;SDS011;9924;50.828;6.440;2023-05-07T03:35:56;2.95;;;2.40;;
19554;SDS011;9924;50.828;6.440;2023-05-07T03:38:41;4.22;;;2.55;;
19554;SDS011;9924;50.828;6.440;2023-05-07T03:41:26;2.60;;;2.28;;
19554;SDS011;9924;50.828;6.440;2023-05-07T03:44:13;4.25;;;2.53;;
19554;SDS011;9924;50.828;6.440;2023-05-07T03:46:59;3.50;;;2.40;;
19554;SDS011;9924;50.828;6.440;2023-05-07T03:49:46;4.78;;;3.00;;
19554;SDS011;9924;50.828;6.440;2023-05-07T03:52:33;7.18;;;2.47;;
19554;SDS011;9924;50.828;6.440;2023-05-07T03:55:18;4.60;;;2.70;;
19554;SDS011;9924;50.828;6.440;2023-05-07T03:58:05;4.43;;;2.80;;
19554;SDS011;9924;50.828;6.440;2023-05-07T04:00:50;4.60;;;2.83;;
19554;SDS011;9924;50.828;6.440;2023-05-07T04:03:36;7.25;;;3.05;;
19554;SDS011;9924;50.828;6.440;2023-05-07T04:06:21;4.28;;;3.08;;
19554;SDS011;9924;50.828;6.440;2023-05-07T04:09:06;5.78;;;3.63;;
19554;SDS011;9924;50.828;6.440;2023-05-07T04:11:51;7.05;;;3.20;;
19554;SDS011;9924;50.828;6.440;2023-05-07T04:14:36;4.22;;;3.33;;
19554;SDS011;9924;50.828;6.440;2023-05-07T04:17:21;4.07;;;3.20;;
19554;SDS011;9924;50.828;6.440;2023-05-07T04:20:10;5.00;;;3.40;;
19554;SDS011;9924;50.828;6.440;2023-05-07T04:22:59;5.07;;;3.75;;
19554;SDS011;9924;50.828;6.440;2023-05-07T04:25:45;4.75;;;3.35;;
19554;SDS011;9924;50.828;6.440;2023-05-07T04:28:30;7.22;;;3.55;;
19554;SDS011;9924;50.828;6.440;2023-05-07T04:31:18;4.32;;;3.75;;
19554;SDS011;9924;50.828;6.440;2023-05-07T04:34:03;6.35;;;3.60;;
19554;SDS011;9924;50.828;6.440;2023-05-07T04:36:48;6.25;;;3.13;;
19554;SDS011;9924;50.828;6.440;2023-05-07T04:39:33;5.90;;;3.67;;
19554;SDS011;9924;50.828;6.440;2023-05-07T04:42:19;5.60;;;3.70;;
19554;SDS011;9924;50.828;6.440;2023-05-07T04:45:04;4.30;;;3.30;;
19554;SDS011;9924;50.828;6.440;2023-05-07T04:47:49;5.68;;;3.95;;
19554;SDS011;9924;50.828;6.440;2023-05-07T04:50:37;6.65;;;3.97;;
19554;SDS011;9924;50.828;6.440;2023-05-07T04:53:22;4.05;;;3.25;;
19554;SDS011;9924;50.828;6.440;2023-05-07T04:56:07;5.75;;;3.75;;
19554;SDS011;9924;50.828;6.440;2023-05-07T04:58:52;6.15;;;3.30;;
19554;SDS011;9924;50.828;6.440;2023-05-07T05:01:37;5.90;;;3.75;;
19554;SDS011;9924;50.828;6.440;2023-05-07T05:04:22;3.72;;;3.20;;
19554;SDS011;9924;50.828;6.440;2023-05-07T05:07:07;3.92;;;3.20;;
19554;SDS011;9924;50.828;6.440;2023-05-07T05:09:51;5.72;;;3.25;;
19554;SDS011;9924;50.828;6.440;2023-05-07T05:12:38;4.22;;;3.17;;
19554;SDS011;9924;50.828;6.440;2023-05-07T05:15:23;5.18;;;3.40;;
19554;SDS011;9924;50.828;6.440;2023-05-07T05:18:08;6.63;;;3.80;;
19554;SDS011;9924;50.828;6.440;2023-05-07T05:20:52;4.20;;;3.50;;
19554;SDS011;9924;50.828;6.440;2023-05-07T05:23:38;7.78;;;3.67;;
19554;SDS011;9924;50.828;6.440;2023-05-07T05:26:29;3.80;;;3.10;;
19554;SDS011;9924;50.828;6.440;2023-05-07T05:29:14;4.15;;;2.90;;
19554;SDS011;9924;50.828;6.440;2023-05-07T05:31:58;3.83;;;3.03;;
19554;SDS011;9924;50.828;6.440;2023-05-07T05:34:43;5.40;;;3.05;;
19554;SDS011;9924;50.828;6.440;2023-05-07T05:37:32;4.28;;;3.30;;
19554;SDS011;9924;50.828;6.440;2023-05-07T05:40:18;3.88;;;2.92;;
19554;SDS011;9924;50.828;6.440;2023-05-07T05:43:02;4.30;;;3.28;;
19554;SDS011;9924;50.828;6.440;2023-05-07T05:46:01;6.57;;;3.80;;
19554;SDS011;9924;50.828;6.440;2023-05-07T05:48:48;5.60;;;3.50;;
19554;SDS011;9924;50.828;6.440;2023-05-07T05:51:34;7.22;;;3.85;;
19554;SDS011;9924;50.828;6.440;2023-05-07T05:54:23;6.00;;;3.65;;
19554;SDS011;9924;50.828;6.440;2023-05-07T05:57:18;5.93;;;3.20;;
19554;SDS011;9924;50.828;6.440;2023-05-07T06:00:07;7.20;;;3.80;;
19554;SDS011;9924;50.828;6.440;2023-05-07T06:02:56;4.50;;;3.60;;
19554;SDS011;9924;50.828;6.440;2023-05-07T06:05:45;3.60;;;3.20;;
19554;SDS011;9924;50.828;6.440;2023-05-07T06:08:34;4.72;;;3.35;;
19554;SDS011;9924;50.828;6.440;2023-05-07T06:11:20;5.32;;;3.67;;
19554;SDS011;9924;50.828;6.440;2023-05-07T06:14:05;4.75;;;3.08;;
19554;SDS011;9924;50.828;6.440;2023-05-07T06:16:54;5.35;;;3.60;;
19554;SDS011;9924;50.828;6.440;2023-05-07T06:19:39;6.50;;;3.55;;
19554;SDS011;9924;50.828;6.440;2023-05-07T06:22:24;6.03;;;3.50;;
19554;SDS011;9924;50.828;6.440;2023-05-07T06:25:09;6.65;;;2.95;;
19554;SDS011;9924;50.828;6.440;2023-05-07T06:28:01;8.50;;;2.70;;
19554;SDS011;9924;50.828;6.440;2023-05-07T06:30:46;6.35;;;2.92;;
19554;SDS011;9924;50.828;6.440;2023-05-07T06:33:36;3.45;;;2.63;;
19554;SDS011;9924;50.828;6.440;2023-05-07T06:36:21;5.88;;;2.78;;
19554;SDS011;9924;50.828;6.440;2023-05-07T06:39:06;4.05;;;2.38;;
19554;SDS011;9924;50.828;6.440;2023-05-07T06:41:54;7.60;;;2.10;;
19554;SDS011;9924;50.828;6.440;2023-05-07T06:45:03;3.03;;;2.20;;
19554;SDS011;9924;50.828;6.440;2023-05-07T06:47:49;5.00;;;2.60;;
19554;SDS011;9924;50.828;6.440;2023-05-07T06:50:39;3.28;;;2.45;;
19554;SDS011;9924;50.828;6.440;2023-05-07T06:53:26;3.90;;;2.10;;
19554;SDS011;9924;50.828;6.440;2023-05-07T06:56:12;2.78;;;2.03;;
19554;SDS011;9924;50.828;6.440;2023-05-07T06:59:01;4.40;;;2.20;;
19554;SDS011;9924;50.828;6.440;2023-05-07T07:01:56;3.80;;;2.00;;
19554;SDS011;9924;50.828;6.440;2023-05-07T07:04:41;3.83;;;2.30;;
19554;SDS011;9924;50.828;6.440;2023-05-07T07:07:26;2.85;;;2.00;;
19554;SDS011;9924;50.828;6.440;2023-05-07T07:10:14;5.10;;;2.00;;
19554;SDS011;9924;50.828;6.440;2023-05-07T07:12:59;3.42;;;1.70;;
19554;SDS011;9924;50.828;6.440;2023-05-07T07:15:44;2.78;;;1.73;;
19554;SDS011;9924;50.828;6.440;2023-05-07T07:18:32;3.63;;;1.60;;
19554;SDS011;9924;50.828;6.440;2023-05-07T07:21:20;4.72;;;1.60;;
19554;SDS011;9924;50.828;6.440;2023-05-07T07:24:05;3.90;;;1.85;;
19554;SDS011;9924;50.828;6.440;2023-05-07T07:26:55;2.35;;;1.83;;
19554;SDS011;9924;50.828;6.440;2023-05-07T07:29:43;1.92;;;1.63;;
19554;SDS011;9924;50.828;6.440;2023-05-07T07:32:31;2.95;;;1.70;;
19554;SDS011;9924;50.828;6.440;2023-05-07T07:35:24;3.88;;;2.08;;
19554;SDS011;9924;50.828;6.440;2023-05-07T07:38:12;5.25;;;2.20;;
19554;SDS011;9924;50.828;6.440;2023-05-07T07:40:57;3.75;;;1.80;;
19554;SDS011;9924;50.828;6.440;2023-05-07T07:43:42;4.03;;;2.10;;
19554;SDS011;9924;50.828;6.440;2023-05-07T07:46:29;4.00;;;1.95;;
19554;SDS011;9924;50.828;6.440;2023-05-07T07:49:14;5.65;;;2.28;;
19554;SDS011;9924;50.828;6.440;2023-05-07T07:51:58;3.40;;;1.98;;
19554;SDS011;9924;50.828;6.440;2023-05-07T07:54:53;2.88;;;2.17;;
19554;SDS011;9924;50.828;6.440;2023-05-07T07:57:40;1.90;;;1.70;;
19554;SDS011;9924;50.828;6.440;2023-05-07T08:00:25;4.38;;;1.50;;
19554;SDS011;9924;50.828;6.440;2023-05-07T08:03:11;2.10;;;1.63;;
19554;SDS011;9924;50.828;6.440;2023-05-07T08:05:58;2.28;;;1.63;;
19554;SDS011;9924;50.828;6.440;2023-05-07T08:08:46;2.92;;;1.73;;
19554;SDS011;9924;50.828;6.440;2023-05-07T08:11:31;4.40;;;1.83;;
19554;SDS011;9924;50.828;6.440;2023-05-07T08:14:17;3.78;;;1.73;;
19554;SDS011;9924;50.828;6.440;2023-05-07T08:17:06;2.22;;;1.67;;
19554;SDS011;9924;50.828;6.440;2023-05-07T08:19:53;3.78;;;2.10;;
19554;SDS011;9924;50.828;6.440;2023-05-07T08:22:41;2.58;;;1.70;;
19554;SDS011;9924;50.828;6.440;2023-05-07T08:25:34;3.38;;;1.80;;
19554;SDS011;9924;50.828;6.440;2023-05-07T08:28:31;4.63;;;1.67;;
19554;SDS011;9924;50.828;6.440;2023-05-07T08:31:17;3.33;;;2.25;;
19554;SDS011;9924;50.828;6.440;2023-05-07T08:34:03;5.22;;;2.00;;
19554;SDS011;9924;50.828;6.440;2023-05-07T08:36:59;2.58;;;1.83;;
19554;SDS011;9924;50.828;6.440;2023-05-07T08:39:47;4.80;;;1.88;;
19554;SDS011;9924;50.828;6.440;2023-05-07T08:42:35;4.25;;;2.42;;
19554;SDS011;9924;50.828;6.440;2023-05-07T08:45:23;5.43;;;2.00;;
19554;SDS011;9924;50.828;6.440;2023-05-07T08:48:16;3.95;;;2.28;;
19554;SDS011;9924;50.828;6.440;2023-05-07T08:51:05;3.42;;;2.05;;
19554;SDS011;9924;50.828;6.440;2023-05-07T08:53:54;5.15;;;2.00;;
19554;SDS011;9924;50.828;6.440;2023-05-07T08:56:40;4.20;;;2.00;;
19554;SDS011;9924;50.828;6.440;2023-05-07T08:59:25;4.85;;;2.53;;
19554;SDS011;9924;50.828;6.440;2023-05-07T09:02:13;2.75;;;2.05;;
19554;SDS011;9924;50.828;6.440;2023-05-07T09:05:04;6.05;;;1.77;;
19554;SDS011;9924;50.828;6.440;2023-05-07T09:08:04;5.28;;;1.63;;
19554;SDS011;9924;50.828;6.440;2023-05-07T09:10:51;6.15;;;1.80;;
19554;SDS011;9924;50.828;6.440;2023-05-07T09:13:36;2.45;;;1.90;;
19554;SDS011;9924;50.828;6.440;2023-05-07T09:16:25;2.47;;;1.50;;
19554;SDS011;9924;50.828;6.440;2023-05-07T09:19:11;2.50;;;1.90;;
19554;SDS011;9924;50.828;6.440;2023-05-07T09:21:59;4.50;;;1.95;;
19554;SDS011;9924;50.828;6.440;2023-05-07T09:24:48;4.72;;;2.08;;
19554;SDS011;9924;50.828;6.440;2023-05-07T09:27:33;4.75;;;1.77;;
19554;SDS011;9924;50.828;6.440;2023-05-07T09:30:19;3.28;;;2.10;;
19554;SDS011;9924;50.828;6.440;2023-05-07T09:33:21;4.78;;;1.75;;
19554;SDS011;9924;50.828;6.440;2023-05-07T09:36:11;2.00;;;1.80;;
19554;SDS011;9924;50.828;6.440;2023-05-07T09:38:56;2.70;;;1.63;;
19554;SDS011;9924;50.828;6.440;2023-05-07T09:41:48;4.53;;;1.40;;
19554;SDS011;9924;50.828;6.440;2023-05-07T09:44:38;3.40;;;1.70;;
19554;SDS011;9924;50.828;6.440;2023-05-07T09:47:32;3.17;;;2.13;;
19554;SDS011;9924;50.828;6.440;2023-05-07T09:50:27;4.22;;;1.95;;
19554;SDS011;9924;50.828;6.440;2023-05-07T09:53:22;4.65;;;2.10;;
19554;SDS011;9924;50.828;6.440;2023-05-07T09:56:13;3.75;;;1.88;;
19554;SDS011;9924;50.828;6.440;2023-05-07T09:59:07;4.18;;;2.13;;
19554;SDS011;9924;50.828;6.440;2023-05-07T10:01:59;2.60;;;1.58;;
19554;SDS011;9924;50.828;6.440;2023-05-07T10:04:46;2.72;;;1.85;;
19554;SDS011;9924;50.828;6.440;2023-05-07T10:07:35;3.75;;;1.88;;
19554;SDS011;9924;50.828;6.440;2023-05-07T10:10:19;3.22;;;2.15;;
19554;SDS011;9924;50.828;6.440;2023-05-07T10:13:05;3.42;;;2.00;;
19554;SDS011;9924;50.828;6.440;2023-05-07T10:15:54;5.53;;;2.50;;
19554;SDS011;9924;50.828;6.440;2023-05-07T10:18:40;4.43;;;2.72;;
19554;SDS011;9924;50.828;6.440;2023-05-07T10:21:28;16.77;;;14.70;;
19554;SDS011;9924;50.828;6.440;2023-05-07T10:24:22;4.60;;;2.45;;
19554;SDS011;9924;50.828;6.440;2023-05-07T10:27:26;4.30;;;2.20;;
19554;SDS011;9924;50.828;6.440;2023-05-07T10:33:19;3.53;;;1.95;;
19554;SDS011;9924;50.828;6.440;2023-05-07T10:36:13;6.13;;;4.00;;
19554;SDS011;9924;50.828;6.440;2023-05-07T10:38:58;4.03;;;2.72;;
19554;SDS011;9924;50.828;6.440;2023-05-07T10:41:44;2.78;;;2.30;;
19554;SDS011;9924;50.828;6.440;2023-05-07T10:44:29;4.55;;;2.58;;
19554;SDS011;9924;50.828;6.440;2023-05-07T10:47:19;4.88;;;2.25;;
19554;SDS011;9924;50.828;6.440;2023-05-07T10:53:23;3.72;;;2.17;;
19554;SDS011;9924;50.828;6.440;2023-05-07T11:02:17;5.10;;;2.35;;
19554;SDS011;9924;50.828;6.440;2023-05-07T11:08:09;2.55;;;2.00;;
19554;SDS011;9924;50.828;6.440;2023-05-07T11:10:54;2.47;;;2.10;;
19554;SDS011;9924;50.828;6.440;2023-05-07T11:13:51;2.60;;;2.05;;
19554;SDS011;9924;50.828;6.440;2023-05-07T11:16:36;4.45;;;2.05;;
19554;SDS011;9924;50.828;6.440;2023-05-07T11:22:36;3.15;;;2.40;;
19554;SDS011;9924;50.828;6.440;2023-05-07T11:25:23;4.57;;;2.55;;
19554;SDS011;9924;50.828;6.440;2023-05-07T11:28:09;4.40;;;2.42;;
19554;SDS011;9924;50.828;6.440;2023-05-07T11:30:55;2.95;;;2.13;;
19554;SDS011;9924;50.828;6.440;2023-05-07T11:33:43;3.42;;;2.42;;
19554;SDS011;9924;50.828;6.440;2023-05-07T11:36:31;4.78;;;2.17;;
19554;SDS011;9924;50.828;6.440;2023-05-07T11:39:23;5.00;;;1.88;;
19554;SDS011;9924;50.828;6.440;2023-05-07T11:42:27;5.25;;;2.38;;
19554;SDS011;9924;50.828;6.440;2023-05-07T11:45:23;4.90;;;2.58;;
19554;SDS011;9924;50.828;6.440;2023-05-07T11:48:15;4.70;;;2.55;;
19554;SDS011;9924;50.828;6.440;2023-05-07T11:51:02;4.00;;;2.50;;
19554;SDS011;9924;50.828;6.440;2023-05-07T11:53:48;3.17;;;2.30;;
19554;SDS011;9924;50.828;6.440;2023-05-07T11:56:33;4.40;;;2.30;;
19554;SDS011;9924;50.828;6.440;2023-05-07T11:59:20;4.97;;;2.72;;
19554;SDS011;9924;50.828;6.440;2023-05-07T12:02:06;7.65;;;3.55;;
19554;SDS011;9924;50.828;6.440;2023-05-07T12:05:22;6.95;;;3.28;;
19554;SDS011;9924;50.828;6.440;2023-05-07T12:08:14;7.00;;;3.67;;
19554;SDS011;9924;50.828;6.440;2023-05-07T12:11:03;5.60;;;3.83;;
19554;SDS011;9924;50.828;6.440;2023-05-07T12:13:55;7.53;;;3.70;;
19554;SDS011;9924;50.828;6.440;2023-05-07T12:16:41;9.77;;;4.93;;
19554;SDS011;9924;50.828;6.440;2023-05-07T12:19:27;8.77;;;4.95;;
19554;SDS011;9924;50.828;6.440;2023-05-07T12:22:14;10.32;;;5.30;;
19554;SDS011;9924;50.828;6.440;2023-05-07T12:25:02;9.55;;;5.18;;
19554;SDS011;9924;50.828;6.440;2023-05-07T12:27:51;7.75;;;4.82;;
19554;SDS011;9924;50.828;6.440;2023-05-07T12:30:43;8.88;;;3.47;;
19554;SDS011;9924;50.828;6.440;2023-05-07T12:33:32;9.00;;;4.22;;
19554;SDS011;9924;50.828;6.440;2023-05-07T12:36:16;4.90;;;4.13;;
19554;SDS011;9924;50.828;6.440;2023-05-07T12:39:04;6.85;;;3.92;;
19554;SDS011;9924;50.828;6.440;2023-05-07T12:41:56;7.25;;;4.30;;
19554;SDS011;9924;50.828;6.440;2023-05-07T12:44:44;5.25;;;3.72;;
19554;SDS011;9924;50.828;6.440;2023-05-07T12:47:30;8.85;;;5.03;;
19554;SDS011;9924;50.828;6.440;2023-05-07T12:50:17;4.85;;;3.88;;
19554;SDS011;9924;50.828;6.440;2023-05-07T12:53:05;9.38;;;4.85;;
19554;SDS011;9924;50.828;6.440;2023-05-07T12:56:12;6.93;;;5.07;;
19554;SDS011;9924;50.828;6.440;2023-05-07T12:58:59;6.55;;;4.15;;
19554;SDS011;9924;50.828;6.440;2023-05-07T13:01:44;7.60;;;5.20;;
19554;SDS011;9924;50.828;6.440;2023-05-07T13:04:32;7.10;;;5.28;;
19554;SDS011;9924;50.828;6.440;2023-05-07T13:07:24;8.30;;;5.28;;
19554;SDS011;9924;50.828;6.440;2023-05-07T13:10:13;9.55;;;6.78;;
19554;SDS011;9924;50.828;6.440;2023-05-07T13:13:20;7.10;;;5.93;;
19554;SDS011;9924;50.828;6.440;2023-05-07T13:16:05;7.57;;;6.15;;
19554;SDS011;9924;50.828;6.440;2023-05-07T13:18:51;10.18;;;6.28;;
19554;SDS011;9924;50.828;6.440;2023-05-07T13:21:36;6.20;;;4.75;;
19554;SDS011;9924;50.828;6.440;2023-05-07T13:24:21;4.32;;;3.40;;
19554;SDS011;9924;50.828;6.440;2023-05-07T13:27:06;4.20;;;3.50;;
19554;SDS011;9924;50.828;6.440;2023-05-07T13:29:51;7.68;;;3.22;;
19554;SDS011;9924;50.828;6.440;2023-05-07T13:32:37;3.75;;;2.67;;
19554;SDS011;9924;50.828;6.440;2023-05-07T13:35:22;3.50;;;2.75;;
19554;SDS011;9924;50.828;6.440;2023-05-07T13:38:09;5.78;;;2.05;;
19554;SDS011;9924;50.828;6.440;2023-05-07T13:40:54;3.83;;;2.25;;
19554;SDS011;9924;50.828;6.440;2023-05-07T13:43:39;3.22;;;1.73;;
19554;SDS011;9924;50.828;6.440;2023-05-07T13:46:29;1.77;;;1.50;;
19554;SDS011;9924;50.828;6.440;2023-05-07T13:49:17;2.13;;;1.52;;
19554;SDS011;9924;50.828;6.440;2023-05-07T13:52:03;2.35;;;1.35;;
19554;SDS011;9924;50.828;6.440;2023-05-07T13:54:48;2.22;;;1.75;;
19554;SDS011;9924;50.828;6.440;2023-05-07T13:57:33;2.10;;;1.55;;
19554;SDS011;9924;50.828;6.440;2023-05-07T14:00:25;2.00;;;1.42;;
19554;SDS011;9924;50.828;6.440;2023-05-07T14:03:11;2.30;;;1.23;;
19554;SDS011;9924;50.828;6.440;2023-05-07T14:05:56;2.85;;;1.60;;
19554;SDS011;9924;50.828;6.440;2023-05-07T14:08:43;1.33;;;1.10;;
19554;SDS011;9924;50.828;6.440;2023-05-07T14:11:28;1.60;;;1.30;;
19554;SDS011;9924;50.828;6.440;2023-05-07T14:14:13;2.50;;;1.30;;
19554;SDS011;9924;50.828;6.440;2023-05-07T14:16:59;4.18;;;1.35;;
19554;SDS011;9924;50.828;6.440;2023-05-07T14:19:45;3.92;;;1.35;;
19554;SDS011;9924;50.828;6.440;2023-05-07T14:22:34;2.97;;;1.40;;
19554;SDS011;9924;50.828;6.440;2023-05-07T14:25:19;1.85;;;1.10;;
19554;SDS011;9924;50.828;6.440;2023-05-07T14:28:07;2.88;;;1.33;;
19554;SDS011;9924;50.828;6.440;2023-05-07T14:30:54;2.63;;;1.58;;
19554;SDS011;9924;50.828;6.440;2023-05-07T14:33:39;2.33;;;1.83;;
19554;SDS011;9924;50.828;6.440;2023-05-07T14:36:24;3.88;;;1.83;;
19554;SDS011;9924;50.828;6.440;2023-05-07T14:39:14;4.03;;;1.98;;
19554;SDS011;9924;50.828;6.440;2023-05-07T14:41:59;2.58;;;2.08;;
19554;SDS011;9924;50.828;6.440;2023-05-07T14:44:44;5.00;;;2.20;;
19554;SDS011;9924;50.828;6.440;2023-05-07T14:47:31;6.88;;;2.40;;
19554;SDS011;9924;50.828;6.440;2023-05-07T14:50:16;5.65;;;2.45;;
19554;SDS011;9924;50.828;6.440;2023-05-07T14:53:01;4.10;;;1.90;;
19554;SDS011;9924;50.828;6.440;2023-05-07T14:55:46;6.30;;;2.20;;
19554;SDS011;9924;50.828;6.440;2023-05-07T14:58:31;7.05;;;2.03;;
19554;SDS011;9924;50.828;6.440;2023-05-07T15:01:21;3.25;;;1.80;;
19554;SDS011;9924;50.828;6.440;2023-05-07T15:04:09;2.85;;;2.13;;
19554;SDS011;9924;50.828;6.440;2023-05-07T15:06:54;3.53;;;2.00;;
19554;SDS011;9924;50.828;6.440;2023-05-07T15:09:41;1.50;;;1.35;;
19554;SDS011;9924;50.828;6.440;2023-05-07T15:12:26;3.42;;;1.30;;
19554;SDS011;9924;50.828;6.440;2023-05-07T15:15:22;1.52;;;1.00;;
19554;SDS011;9924;50.828;6.440;2023-05-07T15:18:08;2.38;;;1.00;;
19554;SDS011;9924;50.828;6.440;2023-05-07T15:20:52;2.45;;;1.25;;
19554;SDS011;9924;50.828;6.440;2023-05-07T15:23:37;3.60;;;1.23;;
19554;SDS011;9924;50.828;6.440;2023-05-07T15:26:22;5.20;;;1.20;;
19554;SDS011;9924;50.828;6.440;2023-05-07T15:29:10;2.92;;;1.20;;
19554;SDS011;9924;50.828;6.440;2023-05-07T15:31:55;2.00;;;1.00;;
19554;SDS011;9924;50.828;6.440;2023-05-07T15:34:41;3.80;;;1.40;;
19554;SDS011;9924;50.828;6.440;2023-05-07T15:37:26;2.03;;;1.10;;
19554;SDS011;9924;50.828;6.440;2023-05-07T15:40:16;3.05;;;1.20;;
19554;SDS011;9924;50.828;6.440;2023-05-07T15:43:01;6.97;;;1.23;;
19554;SDS011;9924;50.828;6.440;2023-05-07T15:45:47;1.45;;;0.80;;
19554;SDS011;9924;50.828;6.440;2023-05-07T15:48:32;1.50;;;1.10;;
19554;SDS011;9924;50.828;6.440;2023-05-07T15:51:34;3.05;;;1.50;;
19554;SDS011;9924;50.828;6.440;2023-05-07T15:54:19;2.65;;;1.35;;
19554;SDS011;9924;50.828;6.440;2023-05-07T15:57:04;3.38;;;1.55;;
19554;SDS011;9924;50.828;6.440;2023-05-07T15:59:58;1.48;;;1.30;;
19554;SDS011;9924;50.828;6.440;2023-05-07T16:02:44;2.63;;;1.58;;
19554;SDS011;9924;50.828;6.440;2023-05-07T16:05:32;1.80;;;1.27;;
19554;SDS011;9924;50.828;6.440;2023-05-07T16:08:24;5.45;;;1.50;;
19554;SDS011;9924;50.828;6.440;2023-05-07T16:11:09;2.40;;;1.50;;
19554;SDS011;9924;50.828;6.440;2023-05-07T16:13:54;1.38;;;1.27;;
19554;SDS011;9924;50.828;6.440;2023-05-07T16:16:39;2.03;;;1.50;;
19554;SDS011;9924;50.828;6.440;2023-05-07T16:19:24;1.13;;;1.00;;
19554;SDS011;9924;50.828;6.440;2023-05-07T16:22:09;1.50;;;1.05;;
19554;SDS011;9924;50.828;6.440;2023-05-07T16:24:54;2.55;;;0.93;;
19554;SDS011;9924;50.828;6.440;2023-05-07T16:27:39;1.90;;;0.90;;
19554;SDS011;9924;50.828;6.440;2023-05-07T16:30:24;2.67;;;1.10;;
19554;SDS011;9924;50.828;6.440;2023-05-07T16:33:09;0.98;;;0.80;;
19554;SDS011;9924;50.828;6.440;2023-05-07T16:35:58;1.38;;;0.90;;
19554;SDS011;9924;50.828;6.440;2023-05-07T16:38:47;3.88;;;1.00;;
19554;SDS011;9924;50.828;6.440;2023-05-07T16:41:33;2.08;;;1.20;;
19554;SDS011;9924;50.828;6.440;2023-05-07T16:44:19;1.40;;;0.90;;
19554;SDS011;9924;50.828;6.440;2023-05-07T16:47:04;2.40;;;1.60;;
19554;SDS011;9924;50.828;6.440;2023-05-07T16:49:51;3.28;;;1.30;;
19554;SDS011;9924;50.828;6.440;2023-05-07T16:52:36;2.92;;;1.70;;
19554;SDS011;9924;50.828;6.440;2023-05-07T16:55:21;3.17;;;2.03;;
19554;SDS011;9924;50.828;6.440;2023-05-07T16:58:07;2.45;;;1.95;;
19554;SDS011;9924;50.828;6.440;2023-05-07T17:00:59;4.53;;;1.85;;
19554;SDS011;9924;50.828;6.440;2023-05-07T17:03:46;3.58;;;2.17;;
19554;SDS011;9924;50.828;6.440;2023-05-07T17:06:30;4.47;;;1.98;;
19554;SDS011;9924;50.828;6.440;2023-05-07T17:09:33;5.30;;;2.70;;
19554;SDS011;9924;50.828;6.440;2023-05-07T17:12:18;3.65;;;2.50;;
19554;SDS011;9924;50.828;6.440;2023-05-07T17:15:07;4.38;;;2.20;;
19554;SDS011;9924;50.828;6.440;2023-05-07T17:17:53;5.85;;;2.65;;
19554;SDS011;9924;50.828;6.440;2023-05-07T17:20:40;2.92;;;2.38;;
19554;SDS011;9924;50.828;6.440;2023-05-07T17:23:28;4.45;;;2.92;;